メインページ
METAR-TAF:

METAR-TAF

空港 :

ケロウナ国際空港

ケロウナ, ブリティッシュコロンビア州, カナダ

緯度: 49-58N, 経度: 119-23W, 海抜: 430m

現時点の気象観測

当レポートは20分前の15:00(UTC)に作成
変向風 2kt
気温 15°C
湿度 77%
気圧 1011 hPa
視程: 14.5km
晴天

METAR: CYLW 111500Z AUTO VRB02KT 9SM CLR 15/11 A2985 RMK SLP106 DENSITY ALT 1800FT

時間: 08:20 (15:20 UTC)

予報

当レポートは2時間41分前の12:39(UTC)に作成
予報は11日の 13時(UTC)から 12日の 01時(UTC)まで有効
変向風 3kt
視程: 10km
高度8000ftの雲はほとんどない
高度23000ftの雲は散在している
11日の 17時(UTC)から 11日の 19時(UTC)まで徐々に
西の風 12kt

TAF: CYLW 111239Z 1113/1201 VRB03KT P6SM FEW080 SCT230 BECMG 1117/1119 27012KT RMK FCST BASED ON AUTO OBS. NXT FCST BY 111900Z

4,000以上の空港の気象観測と天気予報(METAR報とTAF報)

利用可能な観測所は地図上に黄色い丸と赤い丸で示す。

丸の上にカーソルを重ねると観測所名を参照できる。

次にクリックすると気象観測と天気予報を参照できる。

マップの切り替え:黒色「×」印の緑ボタンをクリックして拡大、「-」印の緑ボタンをクリックして縮小、緑色の三角印をクリックして隣りの地図に切り替え


METAR-TAF: